sensor_id;sensor_type;location;lat;lon;timestamp;P1;durP1;ratioP1;P2;durP2;ratioP2
9240;SDS011;53485;49.326;9.738;2023-03-31T00:01:11;4.93;;;0.80;;
9240;SDS011;53485;49.326;9.738;2023-03-31T00:03:38;5.83;;;1.00;;
9240;SDS011;53485;49.326;9.738;2023-03-31T00:06:05;5.80;;;0.80;;
9240;SDS011;53485;49.326;9.738;2023-03-31T00:08:33;4.03;;;0.80;;
9240;SDS011;53485;49.326;9.738;2023-03-31T00:11:01;4.53;;;0.90;;
9240;SDS011;53485;49.326;9.738;2023-03-31T00:13:28;4.53;;;1.07;;
9240;SDS011;53485;49.326;9.738;2023-03-31T00:15:55;3.70;;;1.00;;
9240;SDS011;53485;49.326;9.738;2023-03-31T00:18:22;3.60;;;0.90;;
9240;SDS011;53485;49.326;9.738;2023-03-31T00:20:50;6.73;;;1.07;;
9240;SDS011;53485;49.326;9.738;2023-03-31T00:23:16;3.20;;;0.90;;
9240;SDS011;53485;49.326;9.738;2023-03-31T00:25:43;6.77;;;0.97;;
9240;SDS011;53485;49.326;9.738;2023-03-31T00:28:10;6.13;;;1.00;;
9240;SDS011;53485;49.326;9.738;2023-03-31T00:30:37;4.27;;;0.80;;
9240;SDS011;53485;49.326;9.738;2023-03-31T00:33:04;2.93;;;0.90;;
9240;SDS011;53485;49.326;9.738;2023-03-31T00:35:33;3.13;;;1.00;;
9240;SDS011;53485;49.326;9.738;2023-03-31T00:37:58;2.50;;;0.73;;
9240;SDS011;53485;49.326;9.738;2023-03-31T00:40:26;7.00;;;1.00;;
9240;SDS011;53485;49.326;9.738;2023-03-31T00:42:53;4.73;;;0.90;;
9240;SDS011;53485;49.326;9.738;2023-03-31T00:45:22;2.63;;;0.80;;
9240;SDS011;53485;49.326;9.738;2023-03-31T00:47:50;5.37;;;0.90;;
9240;SDS011;53485;49.326;9.738;2023-03-31T00:50:31;9.07;;;1.10;;
9240;SDS011;53485;49.326;9.738;2023-03-31T00:53:00;4.50;;;1.17;;
9240;SDS011;53485;49.326;9.738;2023-03-31T00:55:29;3.93;;;0.90;;
9240;SDS011;53485;49.326;9.738;2023-03-31T00:57:53;3.47;;;1.30;;
9240;SDS011;53485;49.326;9.738;2023-03-31T01:00:20;2.87;;;1.00;;
9240;SDS011;53485;49.326;9.738;2023-03-31T01:02:49;4.53;;;1.13;;
9240;SDS011;53485;49.326;9.738;2023-03-31T01:05:19;2.27;;;1.10;;
9240;SDS011;53485;49.326;9.738;2023-03-31T01:07:44;2.67;;;0.97;;
9240;SDS011;53485;49.326;9.738;2023-03-31T01:10:11;5.07;;;0.80;;
9240;SDS011;53485;49.326;9.738;2023-03-31T01:12:38;8.67;;;1.27;;
9240;SDS011;53485;49.326;9.738;2023-03-31T01:15:05;5.30;;;0.90;;
9240;SDS011;53485;49.326;9.738;2023-03-31T01:17:33;5.37;;;1.20;;
9240;SDS011;53485;49.326;9.738;2023-03-31T01:20:11;3.33;;;0.80;;
9240;SDS011;53485;49.326;9.738;2023-03-31T01:22:43;4.77;;;0.80;;
9240;SDS011;53485;49.326;9.738;2023-03-31T01:25:14;2.23;;;0.90;;
9240;SDS011;53485;49.326;9.738;2023-03-31T01:27:47;4.37;;;1.30;;
9240;SDS011;53485;49.326;9.738;2023-03-31T01:30:31;4.13;;;1.07;;
9240;SDS011;53485;49.326;9.738;2023-03-31T01:33:04;4.03;;;0.80;;
9240;SDS011;53485;49.326;9.738;2023-03-31T01:41:00;6.70;;;1.13;;
9240;SDS011;53485;49.326;9.738;2023-03-31T01:43:31;4.30;;;0.80;;
9240;SDS011;53485;49.326;9.738;2023-03-31T01:46:00;3.37;;;0.80;;
9240;SDS011;53485;49.326;9.738;2023-03-31T01:48:30;4.20;;;0.77;;
9240;SDS011;53485;49.326;9.738;2023-03-31T01:51:01;5.63;;;0.80;;
9240;SDS011;53485;49.326;9.738;2023-03-31T01:53:36;3.20;;;0.80;;
9240;SDS011;53485;49.326;9.738;2023-03-31T01:56:22;5.53;;;1.20;;
9240;SDS011;53485;49.326;9.738;2023-03-31T01:58:49;4.70;;;0.70;;
9240;SDS011;53485;49.326;9.738;2023-03-31T02:01:21;3.60;;;0.70;;
9240;SDS011;53485;49.326;9.738;2023-03-31T02:03:49;3.10;;;0.77;;
9240;SDS011;53485;49.326;9.738;2023-03-31T02:06:16;6.27;;;1.13;;
9240;SDS011;53485;49.326;9.738;2023-03-31T02:08:43;4.37;;;0.80;;
9240;SDS011;53485;49.326;9.738;2023-03-31T02:11:09;3.90;;;0.83;;
9240;SDS011;53485;49.326;9.738;2023-03-31T02:13:36;4.00;;;0.90;;
9240;SDS011;53485;49.326;9.738;2023-03-31T02:16:04;4.30;;;0.80;;
9240;SDS011;53485;49.326;9.738;2023-03-31T02:18:30;5.63;;;0.90;;
9240;SDS011;53485;49.326;9.738;2023-03-31T02:20:57;9.30;;;1.30;;
9240;SDS011;53485;49.326;9.738;2023-03-31T02:23:24;4.17;;;1.00;;
9240;SDS011;53485;49.326;9.738;2023-03-31T02:25:51;3.63;;;1.03;;
9240;SDS011;53485;49.326;9.738;2023-03-31T02:28:19;3.10;;;0.70;;
9240;SDS011;53485;49.326;9.738;2023-03-31T02:30:51;4.07;;;1.00;;
9240;SDS011;53485;49.326;9.738;2023-03-31T02:33:17;5.77;;;1.10;;
9240;SDS011;53485;49.326;9.738;2023-03-31T02:35:44;7.83;;;1.00;;
9240;SDS011;53485;49.326;9.738;2023-03-31T02:38:11;6.73;;;0.70;;
9240;SDS011;53485;49.326;9.738;2023-03-31T02:40:38;4.83;;;0.80;;
9240;SDS011;53485;49.326;9.738;2023-03-31T02:43:06;5.23;;;0.80;;
9240;SDS011;53485;49.326;9.738;2023-03-31T02:45:38;5.00;;;0.90;;
9240;SDS011;53485;49.326;9.738;2023-03-31T02:48:15;6.73;;;0.73;;
9240;SDS011;53485;49.326;9.738;2023-03-31T02:51:01;6.20;;;0.80;;
9240;SDS011;53485;49.326;9.738;2023-03-31T02:53:50;4.03;;;0.53;;
9240;SDS011;53485;49.326;9.738;2023-03-31T02:56:23;7.23;;;0.80;;
9240;SDS011;53485;49.326;9.738;2023-03-31T02:58:53;6.37;;;0.90;;
9240;SDS011;53485;49.326;9.738;2023-03-31T03:01:26;7.77;;;0.90;;
9240;SDS011;53485;49.326;9.738;2023-03-31T03:03:56;2.93;;;0.73;;
9240;SDS011;53485;49.326;9.738;2023-03-31T03:06:41;4.10;;;1.27;;
9240;SDS011;53485;49.326;9.738;2023-03-31T03:12:27;5.27;;;1.20;;
9240;SDS011;53485;49.326;9.738;2023-03-31T03:14:52;5.77;;;1.20;;
9240;SDS011;53485;49.326;9.738;2023-03-31T03:17:31;6.80;;;1.00;;
9240;SDS011;53485;49.326;9.738;2023-03-31T03:19:58;3.87;;;1.00;;
9240;SDS011;53485;49.326;9.738;2023-03-31T03:22:24;7.43;;;1.03;;
9240;SDS011;53485;49.326;9.738;2023-03-31T03:24:51;5.83;;;1.10;;
9240;SDS011;53485;49.326;9.738;2023-03-31T03:27:19;4.33;;;0.97;;
9240;SDS011;53485;49.326;9.738;2023-03-31T03:29:47;7.60;;;0.90;;
9240;SDS011;53485;49.326;9.738;2023-03-31T03:32:14;2.63;;;0.90;;
9240;SDS011;53485;49.326;9.738;2023-03-31T03:34:41;4.90;;;1.10;;
9240;SDS011;53485;49.326;9.738;2023-03-31T03:37:09;6.20;;;1.67;;
9240;SDS011;53485;49.326;9.738;2023-03-31T03:39:36;7.40;;;1.07;;
9240;SDS011;53485;49.326;9.738;2023-03-31T03:42:04;6.27;;;1.30;;
9240;SDS011;53485;49.326;9.738;2023-03-31T03:44:31;2.87;;;0.87;;
9240;SDS011;53485;49.326;9.738;2023-03-31T03:46:59;7.33;;;1.13;;
9240;SDS011;53485;49.326;9.738;2023-03-31T03:49:26;3.60;;;1.10;;
9240;SDS011;53485;49.326;9.738;2023-03-31T03:51:53;9.27;;;1.50;;
9240;SDS011;53485;49.326;9.738;2023-03-31T03:54:21;5.83;;;1.33;;
9240;SDS011;53485;49.326;9.738;2023-03-31T03:56:48;5.43;;;1.20;;
9240;SDS011;53485;49.326;9.738;2023-03-31T03:59:15;6.40;;;0.90;;
9240;SDS011;53485;49.326;9.738;2023-03-31T04:01:43;3.63;;;1.10;;
9240;SDS011;53485;49.326;9.738;2023-03-31T04:04:10;7.57;;;1.17;;
9240;SDS011;53485;49.326;9.738;2023-03-31T04:06:38;4.57;;;1.30;;
9240;SDS011;53485;49.326;9.738;2023-03-31T04:09:05;8.90;;;1.37;;
9240;SDS011;53485;49.326;9.738;2023-03-31T04:11:32;6.93;;;1.07;;
9240;SDS011;53485;49.326;9.738;2023-03-31T04:13:59;3.47;;;1.43;;
9240;SDS011;53485;49.326;9.738;2023-03-31T04:16:27;6.33;;;1.43;;
9240;SDS011;53485;49.326;9.738;2023-03-31T04:18:54;6.00;;;1.10;;
9240;SDS011;53485;49.326;9.738;2023-03-31T04:21:21;9.77;;;1.23;;
9240;SDS011;53485;49.326;9.738;2023-03-31T04:23:50;4.40;;;1.10;;
9240;SDS011;53485;49.326;9.738;2023-03-31T04:26:16;6.67;;;1.20;;
9240;SDS011;53485;49.326;9.738;2023-03-31T04:28:43;4.70;;;1.30;;
9240;SDS011;53485;49.326;9.738;2023-03-31T04:31:09;7.10;;;1.33;;
9240;SDS011;53485;49.326;9.738;2023-03-31T04:33:35;8.60;;;1.37;;
9240;SDS011;53485;49.326;9.738;2023-03-31T04:36:03;5.13;;;1.20;;
9240;SDS011;53485;49.326;9.738;2023-03-31T04:38:29;4.57;;;1.37;;
9240;SDS011;53485;49.326;9.738;2023-03-31T04:40:56;4.40;;;1.10;;
9240;SDS011;53485;49.326;9.738;2023-03-31T04:43:24;4.07;;;1.20;;
9240;SDS011;53485;49.326;9.738;2023-03-31T04:45:51;9.23;;;1.57;;
9240;SDS011;53485;49.326;9.738;2023-03-31T04:48:19;3.33;;;1.10;;
9240;SDS011;53485;49.326;9.738;2023-03-31T04:50:46;4.27;;;1.00;;
9240;SDS011;53485;49.326;9.738;2023-03-31T04:53:14;5.07;;;1.03;;
9240;SDS011;53485;49.326;9.738;2023-03-31T04:55:41;8.80;;;1.23;;
9240;SDS011;53485;49.326;9.738;2023-03-31T04:58:08;5.43;;;1.13;;
9240;SDS011;53485;49.326;9.738;2023-03-31T05:00:36;5.10;;;0.73;;
9240;SDS011;53485;49.326;9.738;2023-03-31T05:03:03;10.27;;;1.20;;
9240;SDS011;53485;49.326;9.738;2023-03-31T05:05:31;6.20;;;1.40;;
9240;SDS011;53485;49.326;9.738;2023-03-31T05:07:57;3.87;;;1.30;;
9240;SDS011;53485;49.326;9.738;2023-03-31T05:10:24;3.57;;;1.07;;
9240;SDS011;53485;49.326;9.738;2023-03-31T05:12:52;4.37;;;1.40;;
9240;SDS011;53485;49.326;9.738;2023-03-31T05:15:19;3.77;;;1.20;;
9240;SDS011;53485;49.326;9.738;2023-03-31T05:17:46;7.23;;;1.10;;
9240;SDS011;53485;49.326;9.738;2023-03-31T05:20:14;2.17;;;0.90;;
9240;SDS011;53485;49.326;9.738;2023-03-31T05:22:41;6.33;;;1.13;;
9240;SDS011;53485;49.326;9.738;2023-03-31T05:25:08;4.67;;;1.00;;
9240;SDS011;53485;49.326;9.738;2023-03-31T05:27:35;2.20;;;0.93;;
9240;SDS011;53485;49.326;9.738;2023-03-31T05:30:03;3.67;;;1.20;;
9240;SDS011;53485;49.326;9.738;2023-03-31T05:32:30;4.93;;;1.23;;
9240;SDS011;53485;49.326;9.738;2023-03-31T05:34:58;6.33;;;1.30;;
9240;SDS011;53485;49.326;9.738;2023-03-31T05:37:25;5.30;;;1.30;;
9240;SDS011;53485;49.326;9.738;2023-03-31T05:39:52;9.20;;;2.13;;
9240;SDS011;53485;49.326;9.738;2023-03-31T05:42:19;3.93;;;1.60;;
9240;SDS011;53485;49.326;9.738;2023-03-31T05:44:46;6.60;;;1.40;;
9240;SDS011;53485;49.326;9.738;2023-03-31T05:47:14;6.83;;;1.70;;
9240;SDS011;53485;49.326;9.738;2023-03-31T05:49:41;4.47;;;1.50;;
9240;SDS011;53485;49.326;9.738;2023-03-31T05:52:08;8.93;;;1.80;;
9240;SDS011;53485;49.326;9.738;2023-03-31T05:54:35;10.00;;;1.70;;
9240;SDS011;53485;49.326;9.738;2023-03-31T05:57:02;4.60;;;1.50;;
9240;SDS011;53485;49.326;9.738;2023-03-31T05:59:29;4.63;;;1.30;;
9240;SDS011;53485;49.326;9.738;2023-03-31T06:01:57;7.27;;;1.70;;
9240;SDS011;53485;49.326;9.738;2023-03-31T06:04:24;10.23;;;1.93;;
9240;SDS011;53485;49.326;9.738;2023-03-31T06:06:51;5.90;;;1.87;;
9240;SDS011;53485;49.326;9.738;2023-03-31T06:09:19;7.50;;;2.07;;
9240;SDS011;53485;49.326;9.738;2023-03-31T06:11:45;4.57;;;1.87;;
9240;SDS011;53485;49.326;9.738;2023-03-31T06:14:13;8.67;;;2.70;;
9240;SDS011;53485;49.326;9.738;2023-03-31T06:16:40;5.93;;;2.10;;
9240;SDS011;53485;49.326;9.738;2023-03-31T06:19:08;8.00;;;2.67;;
9240;SDS011;53485;49.326;9.738;2023-03-31T06:21:35;8.57;;;2.87;;
9240;SDS011;53485;49.326;9.738;2023-03-31T06:24:02;8.93;;;2.70;;
9240;SDS011;53485;49.326;9.738;2023-03-31T06:26:30;7.23;;;2.60;;
9240;SDS011;53485;49.326;9.738;2023-03-31T06:28:57;11.77;;;5.80;;
9240;SDS011;53485;49.326;9.738;2023-03-31T06:31:25;11.27;;;4.40;;
9240;SDS011;53485;49.326;9.738;2023-03-31T06:33:52;10.07;;;4.30;;
9240;SDS011;53485;49.326;9.738;2023-03-31T06:36:19;10.47;;;3.97;;
9240;SDS011;53485;49.326;9.738;2023-03-31T06:38:46;9.80;;;3.47;;
9240;SDS011;53485;49.326;9.738;2023-03-31T06:41:13;10.23;;;4.00;;
9240;SDS011;53485;49.326;9.738;2023-03-31T06:43:39;10.93;;;3.10;;
9240;SDS011;53485;49.326;9.738;2023-03-31T06:46:07;9.33;;;3.53;;
9240;SDS011;53485;49.326;9.738;2023-03-31T06:48:34;9.87;;;3.90;;
9240;SDS011;53485;49.326;9.738;2023-03-31T06:51:01;6.50;;;3.50;;
9240;SDS011;53485;49.326;9.738;2023-03-31T06:53:27;8.93;;;3.67;;
9240;SDS011;53485;49.326;9.738;2023-03-31T06:55:54;11.77;;;4.40;;
9240;SDS011;53485;49.326;9.738;2023-03-31T06:58:22;14.07;;;4.53;;
9240;SDS011;53485;49.326;9.738;2023-03-31T07:00:49;14.07;;;4.60;;
9240;SDS011;53485;49.326;9.738;2023-03-31T07:03:16;7.70;;;4.40;;
9240;SDS011;53485;49.326;9.738;2023-03-31T07:05:48;6.77;;;4.63;;
9240;SDS011;53485;49.326;9.738;2023-03-31T07:08:14;9.93;;;4.80;;
9240;SDS011;53485;49.326;9.738;2023-03-31T07:10:42;11.40;;;4.00;;
9240;SDS011;53485;49.326;9.738;2023-03-31T07:13:08;8.90;;;4.87;;
9240;SDS011;53485;49.326;9.738;2023-03-31T07:15:36;12.70;;;5.43;;
9240;SDS011;53485;49.326;9.738;2023-03-31T07:18:03;12.40;;;4.83;;
9240;SDS011;53485;49.326;9.738;2023-03-31T07:20:30;6.77;;;4.50;;
9240;SDS011;53485;49.326;9.738;2023-03-31T07:22:57;9.40;;;4.63;;
9240;SDS011;53485;49.326;9.738;2023-03-31T07:25:24;12.23;;;4.73;;
9240;SDS011;53485;49.326;9.738;2023-03-31T07:27:52;15.10;;;4.63;;
9240;SDS011;53485;49.326;9.738;2023-03-31T07:30:19;8.50;;;4.10;;
9240;SDS011;53485;49.326;9.738;2023-03-31T07:32:47;10.33;;;4.63;;
9240;SDS011;53485;49.326;9.738;2023-03-31T07:35:13;10.93;;;5.33;;
9240;SDS011;53485;49.326;9.738;2023-03-31T07:37:41;11.30;;;5.60;;
9240;SDS011;53485;49.326;9.738;2023-03-31T07:40:07;10.00;;;5.20;;
9240;SDS011;53485;49.326;9.738;2023-03-31T07:42:33;8.27;;;4.73;;
9240;SDS011;53485;49.326;9.738;2023-03-31T07:45:00;7.33;;;4.70;;
9240;SDS011;53485;49.326;9.738;2023-03-31T07:47:27;8.30;;;4.80;;
9240;SDS011;53485;49.326;9.738;2023-03-31T07:49:53;9.17;;;3.80;;
9240;SDS011;53485;49.326;9.738;2023-03-31T07:52:20;8.67;;;4.23;;
9240;SDS011;53485;49.326;9.738;2023-03-31T07:54:48;7.53;;;3.67;;
9240;SDS011;53485;49.326;9.738;2023-03-31T07:57:14;8.67;;;3.83;;
9240;SDS011;53485;49.326;9.738;2023-03-31T07:59:41;7.13;;;3.80;;
9240;SDS011;53485;49.326;9.738;2023-03-31T08:02:10;7.23;;;3.40;;
9240;SDS011;53485;49.326;9.738;2023-03-31T08:04:36;9.37;;;3.33;;
9240;SDS011;53485;49.326;9.738;2023-03-31T08:07:03;8.07;;;2.87;;
9240;SDS011;53485;49.326;9.738;2023-03-31T08:09:30;7.13;;;3.60;;
9240;SDS011;53485;49.326;9.738;2023-03-31T08:11:57;3.73;;;2.60;;
9240;SDS011;53485;49.326;9.738;2023-03-31T08:14:25;8.67;;;4.00;;
9240;SDS011;53485;49.326;9.738;2023-03-31T08:16:52;6.70;;;3.17;;
9240;SDS011;53485;49.326;9.738;2023-03-31T08:19:20;7.20;;;3.43;;
9240;SDS011;53485;49.326;9.738;2023-03-31T08:21:46;7.03;;;3.40;;
9240;SDS011;53485;49.326;9.738;2023-03-31T08:24:13;7.93;;;3.13;;
9240;SDS011;53485;49.326;9.738;2023-03-31T08:26:40;3.70;;;2.90;;
9240;SDS011;53485;49.326;9.738;2023-03-31T08:29:07;5.93;;;2.83;;
9240;SDS011;53485;49.326;9.738;2023-03-31T08:31:34;7.73;;;3.27;;
9240;SDS011;53485;49.326;9.738;2023-03-31T08:34:01;6.07;;;2.73;;
9240;SDS011;53485;49.326;9.738;2023-03-31T08:36:28;2.80;;;2.60;;
9240;SDS011;53485;49.326;9.738;2023-03-31T08:38:56;5.87;;;2.30;;
9240;SDS011;53485;49.326;9.738;2023-03-31T08:41:26;2.30;;;1.30;;
9240;SDS011;53485;49.326;9.738;2023-03-31T08:44:01;3.03;;;1.37;;
9240;SDS011;53485;49.326;9.738;2023-03-31T08:46:27;4.70;;;1.47;;
9240;SDS011;53485;49.326;9.738;2023-03-31T08:48:54;3.60;;;1.80;;
9240;SDS011;53485;49.326;9.738;2023-03-31T08:51:24;4.20;;;1.53;;
9240;SDS011;53485;49.326;9.738;2023-03-31T08:53:52;4.13;;;1.80;;
9240;SDS011;53485;49.326;9.738;2023-03-31T08:56:18;4.93;;;1.53;;
9240;SDS011;53485;49.326;9.738;2023-03-31T08:58:45;7.40;;;1.83;;
9240;SDS011;53485;49.326;9.738;2023-03-31T09:04:17;2.23;;;1.00;;
9240;SDS011;53485;49.326;9.738;2023-03-31T09:12:21;3.70;;;1.27;;
9240;SDS011;53485;49.326;9.738;2023-03-31T09:14:59;5.83;;;1.10;;
9240;SDS011;53485;49.326;9.738;2023-03-31T09:17:25;4.50;;;1.00;;
9240;SDS011;53485;49.326;9.738;2023-03-31T09:19:52;4.53;;;0.93;;
9240;SDS011;53485;49.326;9.738;2023-03-31T09:22:23;6.90;;;0.97;;
9240;SDS011;53485;49.326;9.738;2023-03-31T09:25:04;2.30;;;0.90;;
9240;SDS011;53485;49.326;9.738;2023-03-31T09:27:31;1.20;;;1.10;;
9240;SDS011;53485;49.326;9.738;2023-03-31T09:29:58;2.57;;;0.90;;
9240;SDS011;53485;49.326;9.738;2023-03-31T09:32:26;2.20;;;0.97;;
9240;SDS011;53485;49.326;9.738;2023-03-31T09:34:51;3.63;;;1.10;;
9240;SDS011;53485;49.326;9.738;2023-03-31T09:37:17;2.57;;;0.83;;
9240;SDS011;53485;49.326;9.738;2023-03-31T09:39:44;3.57;;;1.00;;
9240;SDS011;53485;49.326;9.738;2023-03-31T09:42:12;2.67;;;0.80;;
9240;SDS011;53485;49.326;9.738;2023-03-31T09:44:40;2.57;;;1.00;;
9240;SDS011;53485;49.326;9.738;2023-03-31T09:47:06;4.33;;;0.83;;
9240;SDS011;53485;49.326;9.738;2023-03-31T09:49:33;4.20;;;1.00;;
9240;SDS011;53485;49.326;9.738;2023-03-31T09:52:03;3.30;;;0.67;;
9240;SDS011;53485;49.326;9.738;2023-03-31T09:54:33;5.67;;;1.00;;
9240;SDS011;53485;49.326;9.738;2023-03-31T09:56:57;2.47;;;0.90;;
9240;SDS011;53485;49.326;9.738;2023-03-31T09:59:30;4.13;;;0.80;;
9240;SDS011;53485;49.326;9.738;2023-03-31T10:01:57;5.17;;;0.97;;
9240;SDS011;53485;49.326;9.738;2023-03-31T10:04:24;4.07;;;0.83;;
9240;SDS011;53485;49.326;9.738;2023-03-31T10:06:50;3.27;;;0.90;;
9240;SDS011;53485;49.326;9.738;2023-03-31T10:09:18;4.77;;;1.00;;
9240;SDS011;53485;49.326;9.738;2023-03-31T10:14:26;2.87;;;0.87;;
9240;SDS011;53485;49.326;9.738;2023-03-31T10:16:54;4.13;;;0.77;;
9240;SDS011;53485;49.326;9.738;2023-03-31T10:19:22;2.07;;;0.70;;
9240;SDS011;53485;49.326;9.738;2023-03-31T10:21:54;2.53;;;0.80;;
9240;SDS011;53485;49.326;9.738;2023-03-31T10:24:36;4.43;;;0.87;;
9240;SDS011;53485;49.326;9.738;2023-03-31T10:27:02;2.13;;;1.00;;
9240;SDS011;53485;49.326;9.738;2023-03-31T10:29:30;3.03;;;0.70;;
9240;SDS011;53485;49.326;9.738;2023-03-31T10:32:01;6.23;;;0.90;;
9240;SDS011;53485;49.326;9.738;2023-03-31T10:34:28;2.37;;;0.70;;
9240;SDS011;53485;49.326;9.738;2023-03-31T10:36:55;3.87;;;0.70;;
9240;SDS011;53485;49.326;9.738;2023-03-31T10:39:22;3.03;;;0.73;;
9240;SDS011;53485;49.326;9.738;2023-03-31T10:41:50;3.43;;;0.70;;
9240;SDS011;53485;49.326;9.738;2023-03-31T10:46:55;4.47;;;1.00;;
9240;SDS011;53485;49.326;9.738;2023-03-31T10:49:23;3.47;;;0.70;;
9240;SDS011;53485;49.326;9.738;2023-03-31T10:51:52;6.17;;;0.67;;
9240;SDS011;53485;49.326;9.738;2023-03-31T10:54:18;5.73;;;0.83;;
9240;SDS011;53485;49.326;9.738;2023-03-31T10:56:45;4.37;;;0.73;;
9240;SDS011;53485;49.326;9.738;2023-03-31T10:59:34;4.43;;;1.13;;
9240;SDS011;53485;49.326;9.738;2023-03-31T11:02:10;3.07;;;0.70;;
9240;SDS011;53485;49.326;9.738;2023-03-31T11:04:46;3.67;;;1.00;;
9240;SDS011;53485;49.326;9.738;2023-03-31T11:11:19;4.10;;;0.60;;
9240;SDS011;53485;49.326;9.738;2023-03-31T11:13:03;3.43;;;0.83;;
9240;SDS011;53485;49.326;9.738;2023-03-31T11:15:39;6.80;;;1.10;;
9240;SDS011;53485;49.326;9.738;2023-03-31T11:21:01;5.73;;;1.10;;
9240;SDS011;53485;49.326;9.738;2023-03-31T11:23:49;5.20;;;0.77;;
9240;SDS011;53485;49.326;9.738;2023-03-31T11:26:24;2.37;;;0.70;;
9240;SDS011;53485;49.326;9.738;2023-03-31T11:31:49;3.73;;;0.90;;
9240;SDS011;53485;49.326;9.738;2023-03-31T11:37:40;4.90;;;0.97;;
9240;SDS011;53485;49.326;9.738;2023-03-31T11:41:12;6.20;;;0.90;;
9240;SDS011;53485;49.326;9.738;2023-03-31T11:42:49;5.70;;;0.80;;
9240;SDS011;53485;49.326;9.738;2023-03-31T11:45:17;5.20;;;0.87;;
9240;SDS011;53485;49.326;9.738;2023-03-31T11:47:43;3.17;;;0.73;;
9240;SDS011;53485;49.326;9.738;2023-03-31T11:50:11;6.23;;;1.07;;
9240;SDS011;53485;49.326;9.738;2023-03-31T11:52:39;5.13;;;0.60;;
9240;SDS011;53485;49.326;9.738;2023-03-31T11:55:06;7.03;;;0.70;;
9240;SDS011;53485;49.326;9.738;2023-03-31T11:57:44;39.73;;;3.13;;
9240;SDS011;53485;49.326;9.738;2023-03-31T12:00:27;3.03;;;0.47;;
9240;SDS011;53485;49.326;9.738;2023-03-31T12:02:54;6.13;;;0.60;;
9240;SDS011;53485;49.326;9.738;2023-03-31T12:05:21;1.07;;;0.30;;
9240;SDS011;53485;49.326;9.738;2023-03-31T12:07:50;3.70;;;0.40;;
9240;SDS011;53485;49.326;9.738;2023-03-31T12:10:36;4.20;;;0.40;;
9240;SDS011;53485;49.326;9.738;2023-03-31T12:15:55;5.67;;;0.73;;
9240;SDS011;53485;49.326;9.738;2023-03-31T12:18:21;8.37;;;0.87;;
9240;SDS011;53485;49.326;9.738;2023-03-31T12:20:50;15.40;;;1.67;;
9240;SDS011;53485;49.326;9.738;2023-03-31T12:23:17;16.83;;;2.10;;
9240;SDS011;53485;49.326;9.738;2023-03-31T12:25:47;19.00;;;3.23;;
9240;SDS011;53485;49.326;9.738;2023-03-31T12:28:13;45.80;;;5.97;;
9240;SDS011;53485;49.326;9.738;2023-03-31T12:30:40;160.67;;;29.37;;
9240;SDS011;53485;49.326;9.738;2023-03-31T12:33:14;1994.67;;;351.50;;
9240;SDS011;53485;49.326;9.738;2023-03-31T12:35:46;1996.50;;;374.67;;
9240;SDS011;53485;49.326;9.738;2023-03-31T12:38:35;817.80;;;211.83;;
9240;SDS011;53485;49.326;9.738;2023-03-31T12:41:20;1999.90;;;617.27;;
9240;SDS011;53485;49.326;9.738;2023-03-31T12:43:55;1999.90;;;837.53;;
9240;SDS011;53485;49.326;9.738;2023-03-31T12:46:30;12.37;;;1.47;;
9240;SDS011;53485;49.326;9.738;2023-03-31T12:48:54;11.60;;;1.60;;
9240;SDS011;53485;49.326;9.738;2023-03-31T12:51:22;10.63;;;1.00;;
9240;SDS011;53485;49.326;9.738;2023-03-31T12:53:58;11.83;;;0.70;;
9240;SDS011;53485;49.326;9.738;2023-03-31T12:56:22;7.27;;;0.87;;
9240;SDS011;53485;49.326;9.738;2023-03-31T12:58:49;2.23;;;0.40;;
9240;SDS011;53485;49.326;9.738;2023-03-31T13:01:17;3.20;;;0.63;;
9240;SDS011;53485;49.326;9.738;2023-03-31T13:03:44;2.80;;;0.30;;
9240;SDS011;53485;49.326;9.738;2023-03-31T13:06:09;4.20;;;0.60;;
9240;SDS011;53485;49.326;9.738;2023-03-31T13:11:07;1.33;;;0.30;;
9240;SDS011;53485;49.326;9.738;2023-03-31T13:13:33;0.90;;;0.40;;
9240;SDS011;53485;49.326;9.738;2023-03-31T13:16:00;2.20;;;0.30;;
9240;SDS011;53485;49.326;9.738;2023-03-31T13:18:26;2.80;;;0.30;;
9240;SDS011;53485;49.326;9.738;2023-03-31T13:20:58;3.20;;;0.40;;
9240;SDS011;53485;49.326;9.738;2023-03-31T13:23:24;2.00;;;0.37;;
9240;SDS011;53485;49.326;9.738;2023-03-31T13:25:50;1.77;;;0.20;;
9240;SDS011;53485;49.326;9.738;2023-03-31T13:28:23;1.63;;;0.30;;
9240;SDS011;53485;49.326;9.738;2023-03-31T13:30:44;1.40;;;0.30;;
9240;SDS011;53485;49.326;9.738;2023-03-31T13:33:10;0.73;;;0.30;;
9240;SDS011;53485;49.326;9.738;2023-03-31T13:35:37;1.73;;;0.30;;
9240;SDS011;53485;49.326;9.738;2023-03-31T13:38:07;1.27;;;0.33;;
9240;SDS011;53485;49.326;9.738;2023-03-31T13:40:36;6.67;;;0.40;;
9240;SDS011;53485;49.326;9.738;2023-03-31T13:45:45;2.53;;;0.40;;
9240;SDS011;53485;49.326;9.738;2023-03-31T13:48:13;3.03;;;0.30;;
9240;SDS011;53485;49.326;9.738;2023-03-31T13:50:43;2.83;;;0.40;;
9240;SDS011;53485;49.326;9.738;2023-03-31T13:53:12;3.10;;;0.40;;
9240;SDS011;53485;49.326;9.738;2023-03-31T13:55:38;2.40;;;0.20;;
9240;SDS011;53485;49.326;9.738;2023-03-31T13:58:06;1.27;;;0.23;;
9240;SDS011;53485;49.326;9.738;2023-03-31T14:00:29;1.27;;;0.50;;
9240;SDS011;53485;49.326;9.738;2023-03-31T14:03:12;1.80;;;0.30;;
9240;SDS011;53485;49.326;9.738;2023-03-31T14:05:42;1.03;;;0.33;;
9240;SDS011;53485;49.326;9.738;2023-03-31T14:08:11;1.50;;;0.33;;
9240;SDS011;53485;49.326;9.738;2023-03-31T14:10:37;1.17;;;0.30;;
9240;SDS011;53485;49.326;9.738;2023-03-31T14:13:04;1.57;;;0.40;;
9240;SDS011;53485;49.326;9.738;2023-03-31T14:15:29;0.67;;;0.20;;
9240;SDS011;53485;49.326;9.738;2023-03-31T14:17:56;0.30;;;0.20;;
9240;SDS011;53485;49.326;9.738;2023-03-31T14:20:27;5.03;;;0.40;;
9240;SDS011;53485;49.326;9.738;2023-03-31T14:23:01;1.50;;;0.40;;
9240;SDS011;53485;49.326;9.738;2023-03-31T14:25:33;1.60;;;0.30;;
9240;SDS011;53485;49.326;9.738;2023-03-31T14:29:07;2.00;;;0.40;;
9240;SDS011;53485;49.326;9.738;2023-03-31T14:30:42;3.53;;;0.63;;
9240;SDS011;53485;49.326;9.738;2023-03-31T14:33:17;1.33;;;0.30;;
9240;SDS011;53485;49.326;9.738;2023-03-31T14:35:45;2.40;;;0.40;;
9240;SDS011;53485;49.326;9.738;2023-03-31T14:38:10;3.20;;;0.30;;
9240;SDS011;53485;49.326;9.738;2023-03-31T14:40:41;3.90;;;0.30;;
9240;SDS011;53485;49.326;9.738;2023-03-31T14:43:01;2.60;;;0.47;;
9240;SDS011;53485;49.326;9.738;2023-03-31T14:45:30;1.60;;;0.20;;
9240;SDS011;53485;49.326;9.738;2023-03-31T14:47:55;2.90;;;0.50;;
9240;SDS011;53485;49.326;9.738;2023-03-31T14:50:20;2.73;;;0.30;;
9240;SDS011;53485;49.326;9.738;2023-03-31T14:52:47;2.03;;;0.40;;
9240;SDS011;53485;49.326;9.738;2023-03-31T14:55:13;3.27;;;0.40;;
9240;SDS011;53485;49.326;9.738;2023-03-31T14:57:39;1.53;;;0.40;;
9240;SDS011;53485;49.326;9.738;2023-03-31T15:00:05;1.30;;;0.40;;
9240;SDS011;53485;49.326;9.738;2023-03-31T15:02:32;2.67;;;0.43;;
9240;SDS011;53485;49.326;9.738;2023-03-31T15:04:57;1.67;;;0.50;;
9240;SDS011;53485;49.326;9.738;2023-03-31T15:07:24;1.83;;;0.40;;
9240;SDS011;53485;49.326;9.738;2023-03-31T15:09:50;2.43;;;0.77;;
9240;SDS011;53485;49.326;9.738;2023-03-31T15:12:17;3.37;;;0.50;;
9240;SDS011;53485;49.326;9.738;2023-03-31T15:14:44;2.00;;;0.43;;
9240;SDS011;53485;49.326;9.738;2023-03-31T15:17:16;3.73;;;0.80;;
9240;SDS011;53485;49.326;9.738;2023-03-31T15:19:37;2.33;;;0.50;;
9240;SDS011;53485;49.326;9.738;2023-03-31T15:22:09;1.20;;;0.37;;
9240;SDS011;53485;49.326;9.738;2023-03-31T15:24:31;2.40;;;0.63;;
9240;SDS011;53485;49.326;9.738;2023-03-31T15:27:00;4.83;;;0.50;;
9240;SDS011;53485;49.326;9.738;2023-03-31T15:29:30;4.33;;;0.70;;
9240;SDS011;53485;49.326;9.738;2023-03-31T15:32:37;2.63;;;0.43;;
9240;SDS011;53485;49.326;9.738;2023-03-31T15:34:46;1.77;;;0.60;;
9240;SDS011;53485;49.326;9.738;2023-03-31T15:37:13;2.07;;;0.43;;
9240;SDS011;53485;49.326;9.738;2023-03-31T15:39:42;8.07;;;0.50;;
9240;SDS011;53485;49.326;9.738;2023-03-31T15:42:06;5.53;;;1.00;;
9240;SDS011;53485;49.326;9.738;2023-03-31T15:44:36;4.97;;;0.80;;
9240;SDS011;53485;49.326;9.738;2023-03-31T15:47:05;1.83;;;0.50;;
9240;SDS011;53485;49.326;9.738;2023-03-31T15:49:27;7.07;;;0.80;;
9240;SDS011;53485;49.326;9.738;2023-03-31T15:51:54;3.67;;;0.60;;